sensor_id;sensor_type;location;lat;lon;timestamp;temperature;humidity
5392;DHT22;2719;53.624;9.786;2023-08-06T00:01:35;18.20;99.90
5392;DHT22;2719;53.624;9.786;2023-08-06T00:04:01;18.20;99.90
5392;DHT22;2719;53.624;9.786;2023-08-06T00:06:28;18.20;99.90
5392;DHT22;2719;53.624;9.786;2023-08-06T00:08:55;18.10;99.90
5392;DHT22;2719;53.624;9.786;2023-08-06T00:11:23;18.00;99.90
5392;DHT22;2719;53.624;9.786;2023-08-06T00:13:50;18.00;99.90
5392;DHT22;2719;53.624;9.786;2023-08-06T00:16:16;18.10;99.90
5392;DHT22;2719;53.624;9.786;2023-08-06T00:18:43;17.90;99.90
5392;DHT22;2719;53.624;9.786;2023-08-06T00:21:09;17.90;99.90
5392;DHT22;2719;53.624;9.786;2023-08-06T00:23:37;18.00;99.90
5392;DHT22;2719;53.624;9.786;2023-08-06T00:26:04;18.00;99.90
5392;DHT22;2719;53.624;9.786;2023-08-06T00:28:32;18.00;99.90
5392;DHT22;2719;53.624;9.786;2023-08-06T00:30:58;17.90;99.90
5392;DHT22;2719;53.624;9.786;2023-08-06T00:33:25;18.00;99.90
5392;DHT22;2719;53.624;9.786;2023-08-06T00:35:52;18.00;99.90
5392;DHT22;2719;53.624;9.786;2023-08-06T00:38:18;18.00;99.90
5392;DHT22;2719;53.624;9.786;2023-08-06T00:40:45;18.00;99.90
5392;DHT22;2719;53.624;9.786;2023-08-06T00:43:12;18.00;99.90
5392;DHT22;2719;53.624;9.786;2023-08-06T00:45:40;17.90;99.90
5392;DHT22;2719;53.624;9.786;2023-08-06T00:48:06;17.80;99.90
5392;DHT22;2719;53.624;9.786;2023-08-06T00:50:34;17.80;99.90
5392;DHT22;2719;53.624;9.786;2023-08-06T00:53:01;17.70;99.90
5392;DHT22;2719;53.624;9.786;2023-08-06T00:55:29;17.70;99.90
5392;DHT22;2719;53.624;9.786;2023-08-06T00:57:55;17.70;99.90
5392;DHT22;2719;53.624;9.786;2023-08-06T01:00:23;17.70;99.90
5392;DHT22;2719;53.624;9.786;2023-08-06T01:02:52;17.50;99.90
5392;DHT22;2719;53.624;9.786;2023-08-06T01:05:20;17.50;99.90
5392;DHT22;2719;53.624;9.786;2023-08-06T01:07:56;17.50;99.90
5392;DHT22;2719;53.624;9.786;2023-08-06T01:10:36;17.60;99.90
5392;DHT22;2719;53.624;9.786;2023-08-06T01:13:15;17.60;99.90
5392;DHT22;2719;53.624;9.786;2023-08-06T01:15:46;17.70;99.90
5392;DHT22;2719;53.624;9.786;2023-08-06T01:18:14;17.60;99.90
5392;DHT22;2719;53.624;9.786;2023-08-06T01:20:43;17.60;99.90
5392;DHT22;2719;53.624;9.786;2023-08-06T01:23:09;17.50;99.90
5392;DHT22;2719;53.624;9.786;2023-08-06T01:25:43;17.50;99.90
5392;DHT22;2719;53.624;9.786;2023-08-06T01:28:17;17.50;99.90
5392;DHT22;2719;53.624;9.786;2023-08-06T01:30:46;17.50;99.90
5392;DHT22;2719;53.624;9.786;2023-08-06T01:33:19;17.50;99.90
5392;DHT22;2719;53.624;9.786;2023-08-06T01:35:49;17.60;99.90
5392;DHT22;2719;53.624;9.786;2023-08-06T01:38:16;17.60;99.90
5392;DHT22;2719;53.624;9.786;2023-08-06T01:40:43;17.70;99.90
5392;DHT22;2719;53.624;9.786;2023-08-06T01:43:09;17.70;99.90
5392;DHT22;2719;53.624;9.786;2023-08-06T01:45:36;17.70;99.90
5392;DHT22;2719;53.624;9.786;2023-08-06T01:48:03;17.70;99.90
5392;DHT22;2719;53.624;9.786;2023-08-06T01:50:30;17.80;99.90
5392;DHT22;2719;53.624;9.786;2023-08-06T01:52:58;17.70;99.90
5392;DHT22;2719;53.624;9.786;2023-08-06T01:55:26;17.70;99.90
5392;DHT22;2719;53.624;9.786;2023-08-06T01:57:52;17.80;99.90
5392;DHT22;2719;53.624;9.786;2023-08-06T02:00:19;17.80;99.90
5392;DHT22;2719;53.624;9.786;2023-08-06T02:02:45;17.80;99.90
5392;DHT22;2719;53.624;9.786;2023-08-06T02:05:12;17.80;99.90
5392;DHT22;2719;53.624;9.786;2023-08-06T02:07:39;17.80;99.90
5392;DHT22;2719;53.624;9.786;2023-08-06T02:10:08;17.80;99.90
5392;DHT22;2719;53.624;9.786;2023-08-06T02:12:34;17.80;99.90
5392;DHT22;2719;53.624;9.786;2023-08-06T02:15:01;17.80;99.90
5392;DHT22;2719;53.624;9.786;2023-08-06T02:17:28;17.70;99.90
5392;DHT22;2719;53.624;9.786;2023-08-06T02:19:54;17.80;99.90
5392;DHT22;2719;53.624;9.786;2023-08-06T02:22:21;17.80;99.90
5392;DHT22;2719;53.624;9.786;2023-08-06T02:24:49;17.80;99.90
5392;DHT22;2719;53.624;9.786;2023-08-06T02:27:17;17.80;99.90
5392;DHT22;2719;53.624;9.786;2023-08-06T02:29:43;17.70;99.90
5392;DHT22;2719;53.624;9.786;2023-08-06T02:32:10;17.70;99.90
5392;DHT22;2719;53.624;9.786;2023-08-06T02:34:37;17.70;99.90
5392;DHT22;2719;53.624;9.786;2023-08-06T02:37:04;17.70;99.90
5392;DHT22;2719;53.624;9.786;2023-08-06T02:39:31;17.70;99.90
5392;DHT22;2719;53.624;9.786;2023-08-06T02:41:59;17.60;99.90
5392;DHT22;2719;53.624;9.786;2023-08-06T02:44:28;17.60;99.90
5392;DHT22;2719;53.624;9.786;2023-08-06T02:46:55;17.60;99.90
5392;DHT22;2719;53.624;9.786;2023-08-06T02:49:21;17.60;99.90
5392;DHT22;2719;53.624;9.786;2023-08-06T02:51:48;17.60;99.90
5392;DHT22;2719;53.624;9.786;2023-08-06T02:54:14;17.50;99.90
5392;DHT22;2719;53.624;9.786;2023-08-06T02:56:43;17.50;99.90
5392;DHT22;2719;53.624;9.786;2023-08-06T02:59:10;17.60;99.90
5392;DHT22;2719;53.624;9.786;2023-08-06T03:01:38;17.60;99.90
5392;DHT22;2719;53.624;9.786;2023-08-06T03:04:05;17.60;99.90
5392;DHT22;2719;53.624;9.786;2023-08-06T03:06:32;17.50;99.90
5392;DHT22;2719;53.624;9.786;2023-08-06T03:08:58;17.50;99.90
5392;DHT22;2719;53.624;9.786;2023-08-06T03:11:25;17.50;99.90
5392;DHT22;2719;53.624;9.786;2023-08-06T03:13:52;17.60;99.90
5392;DHT22;2719;53.624;9.786;2023-08-06T03:16:18;17.60;99.90
5392;DHT22;2719;53.624;9.786;2023-08-06T03:18:46;17.60;99.90
5392;DHT22;2719;53.624;9.786;2023-08-06T03:21:13;17.60;99.90
5392;DHT22;2719;53.624;9.786;2023-08-06T03:23:40;17.60;99.90
5392;DHT22;2719;53.624;9.786;2023-08-06T03:26:06;17.60;99.90
5392;DHT22;2719;53.624;9.786;2023-08-06T03:28:33;17.60;99.90
5392;DHT22;2719;53.624;9.786;2023-08-06T03:31:00;17.60;99.90
5392;DHT22;2719;53.624;9.786;2023-08-06T03:33:26;17.60;99.90
5392;DHT22;2719;53.624;9.786;2023-08-06T03:35:55;17.60;99.90
5392;DHT22;2719;53.624;9.786;2023-08-06T03:38:21;17.60;99.90
5392;DHT22;2719;53.624;9.786;2023-08-06T03:40:48;17.60;99.90
5392;DHT22;2719;53.624;9.786;2023-08-06T03:43:15;17.60;99.90
5392;DHT22;2719;53.624;9.786;2023-08-06T03:45:42;17.60;99.90
5392;DHT22;2719;53.624;9.786;2023-08-06T03:48:08;17.60;99.90
5392;DHT22;2719;53.624;9.786;2023-08-06T03:50:36;17.60;99.90
5392;DHT22;2719;53.624;9.786;2023-08-06T03:53:04;17.60;99.90
5392;DHT22;2719;53.624;9.786;2023-08-06T03:55:31;17.60;99.90
5392;DHT22;2719;53.624;9.786;2023-08-06T03:57:58;17.60;99.90
5392;DHT22;2719;53.624;9.786;2023-08-06T04:00:24;17.60;99.90
5392;DHT22;2719;53.624;9.786;2023-08-06T04:02:51;17.50;99.90
5392;DHT22;2719;53.624;9.786;2023-08-06T04:05:18;17.50;99.90
5392;DHT22;2719;53.624;9.786;2023-08-06T04:07:45;17.50;99.90
5392;DHT22;2719;53.624;9.786;2023-08-06T04:10:13;17.50;99.90
5392;DHT22;2719;53.624;9.786;2023-08-06T04:12:39;17.50;99.90
5392;DHT22;2719;53.624;9.786;2023-08-06T04:15:07;17.50;99.90
5392;DHT22;2719;53.624;9.786;2023-08-06T04:17:33;17.50;99.90
5392;DHT22;2719;53.624;9.786;2023-08-06T04:20:00;17.50;99.90
5392;DHT22;2719;53.624;9.786;2023-08-06T04:22:27;17.50;99.90
5392;DHT22;2719;53.624;9.786;2023-08-06T04:24:54;17.40;99.90
5392;DHT22;2719;53.624;9.786;2023-08-06T04:27:22;17.50;99.90
5392;DHT22;2719;53.624;9.786;2023-08-06T04:29:48;17.40;99.90
5392;DHT22;2719;53.624;9.786;2023-08-06T04:32:15;17.40;99.90
5392;DHT22;2719;53.624;9.786;2023-08-06T04:34:42;17.40;99.90
5392;DHT22;2719;53.624;9.786;2023-08-06T04:37:09;17.40;99.90
5392;DHT22;2719;53.624;9.786;2023-08-06T04:39:36;17.40;99.90
5392;DHT22;2719;53.624;9.786;2023-08-06T04:42:03;17.30;99.90
5392;DHT22;2719;53.624;9.786;2023-08-06T04:44:31;17.30;99.90
5392;DHT22;2719;53.624;9.786;2023-08-06T04:46:58;17.20;99.90
5392;DHT22;2719;53.624;9.786;2023-08-06T04:49:25;17.30;99.90
5392;DHT22;2719;53.624;9.786;2023-08-06T04:51:51;17.30;99.90
5392;DHT22;2719;53.624;9.786;2023-08-06T04:54:18;17.40;99.90
5392;DHT22;2719;53.624;9.786;2023-08-06T04:56:44;17.30;99.90
5392;DHT22;2719;53.624;9.786;2023-08-06T04:59:11;17.40;99.90
5392;DHT22;2719;53.624;9.786;2023-08-06T05:01:39;17.30;99.90
5392;DHT22;2719;53.624;9.786;2023-08-06T05:04:06;17.30;99.90
5392;DHT22;2719;53.624;9.786;2023-08-06T05:06:32;17.30;99.90
5392;DHT22;2719;53.624;9.786;2023-08-06T05:08:59;17.30;99.90
5392;DHT22;2719;53.624;9.786;2023-08-06T05:11:26;17.30;99.90
5392;DHT22;2719;53.624;9.786;2023-08-06T05:13:52;17.30;99.90
5392;DHT22;2719;53.624;9.786;2023-08-06T05:16:19;17.30;99.90
5392;DHT22;2719;53.624;9.786;2023-08-06T05:18:47;17.30;99.90
5392;DHT22;2719;53.624;9.786;2023-08-06T05:21:13;17.30;99.90
5392;DHT22;2719;53.624;9.786;2023-08-06T05:23:41;17.30;99.90
5392;DHT22;2719;53.624;9.786;2023-08-06T05:26:08;17.30;99.90
5392;DHT22;2719;53.624;9.786;2023-08-06T05:28:35;17.30;99.90
5392;DHT22;2719;53.624;9.786;2023-08-06T05:31:03;17.40;99.90
5392;DHT22;2719;53.624;9.786;2023-08-06T05:33:30;17.40;99.90
5392;DHT22;2719;53.624;9.786;2023-08-06T05:35:58;17.40;99.90
5392;DHT22;2719;53.624;9.786;2023-08-06T05:38:25;17.40;99.90
5392;DHT22;2719;53.624;9.786;2023-08-06T05:40:51;17.30;99.90
5392;DHT22;2719;53.624;9.786;2023-08-06T05:43:18;17.30;99.90
5392;DHT22;2719;53.624;9.786;2023-08-06T05:45:45;17.40;99.90
5392;DHT22;2719;53.624;9.786;2023-08-06T05:48:12;17.40;99.90
5392;DHT22;2719;53.624;9.786;2023-08-06T05:50:38;17.40;99.90
5392;DHT22;2719;53.624;9.786;2023-08-06T05:53:06;17.40;99.90
5392;DHT22;2719;53.624;9.786;2023-08-06T05:55:33;17.40;99.90
5392;DHT22;2719;53.624;9.786;2023-08-06T05:58:01;17.50;99.90
5392;DHT22;2719;53.624;9.786;2023-08-06T06:00:28;17.50;99.90
5392;DHT22;2719;53.624;9.786;2023-08-06T06:02:54;17.60;99.90
5392;DHT22;2719;53.624;9.786;2023-08-06T06:05:21;17.60;99.90
5392;DHT22;2719;53.624;9.786;2023-08-06T06:07:47;17.60;99.90
5392;DHT22;2719;53.624;9.786;2023-08-06T06:10:15;17.60;99.90
5392;DHT22;2719;53.624;9.786;2023-08-06T06:12:42;17.60;99.90
5392;DHT22;2719;53.624;9.786;2023-08-06T06:15:09;17.70;99.90
5392;DHT22;2719;53.624;9.786;2023-08-06T06:17:36;17.60;99.90
5392;DHT22;2719;53.624;9.786;2023-08-06T06:20:03;17.70;99.90
5392;DHT22;2719;53.624;9.786;2023-08-06T06:22:30;17.60;99.90
5392;DHT22;2719;53.624;9.786;2023-08-06T06:24:57;17.60;99.90
5392;DHT22;2719;53.624;9.786;2023-08-06T06:27:25;17.60;99.90
5392;DHT22;2719;53.624;9.786;2023-08-06T06:29:51;17.50;99.90
5392;DHT22;2719;53.624;9.786;2023-08-06T06:32:20;17.50;99.90
5392;DHT22;2719;53.624;9.786;2023-08-06T06:34:46;17.60;99.90
5392;DHT22;2719;53.624;9.786;2023-08-06T06:37:13;17.60;99.90
5392;DHT22;2719;53.624;9.786;2023-08-06T06:39:40;17.60;99.90
5392;DHT22;2719;53.624;9.786;2023-08-06T06:42:06;17.40;99.90
5392;DHT22;2719;53.624;9.786;2023-08-06T06:44:34;17.40;99.90
5392;DHT22;2719;53.624;9.786;2023-08-06T06:47:01;17.30;99.90
5392;DHT22;2719;53.624;9.786;2023-08-06T06:49:28;17.30;99.90
5392;DHT22;2719;53.624;9.786;2023-08-06T06:51:54;17.40;99.90
5392;DHT22;2719;53.624;9.786;2023-08-06T06:54:21;17.40;99.90
5392;DHT22;2719;53.624;9.786;2023-08-06T06:56:47;17.60;99.90
5392;DHT22;2719;53.624;9.786;2023-08-06T06:59:14;17.60;99.90
5392;DHT22;2719;53.624;9.786;2023-08-06T07:01:42;17.60;99.90
5392;DHT22;2719;53.624;9.786;2023-08-06T07:04:09;17.60;99.90
5392;DHT22;2719;53.624;9.786;2023-08-06T07:06:35;17.70;99.90
5392;DHT22;2719;53.624;9.786;2023-08-06T07:09:02;17.80;99.90
5392;DHT22;2719;53.624;9.786;2023-08-06T07:11:29;17.80;99.90
5392;DHT22;2719;53.624;9.786;2023-08-06T07:13:56;17.80;99.90
5392;DHT22;2719;53.624;9.786;2023-08-06T07:16:23;17.90;99.90
5392;DHT22;2719;53.624;9.786;2023-08-06T07:18:53;17.90;99.90
5392;DHT22;2719;53.624;9.786;2023-08-06T07:21:20;17.80;99.90
5392;DHT22;2719;53.624;9.786;2023-08-06T07:23:47;17.80;99.90
5392;DHT22;2719;53.624;9.786;2023-08-06T07:26:15;17.90;99.90
5392;DHT22;2719;53.624;9.786;2023-08-06T07:28:41;17.90;99.90
5392;DHT22;2719;53.624;9.786;2023-08-06T07:31:08;18.00;99.90
5392;DHT22;2719;53.624;9.786;2023-08-06T07:33:35;17.90;99.90
5392;DHT22;2719;53.624;9.786;2023-08-06T07:36:09;17.90;99.90
5392;DHT22;2719;53.624;9.786;2023-08-06T07:38:36;18.00;99.90
5392;DHT22;2719;53.624;9.786;2023-08-06T07:41:03;17.90;99.90
5392;DHT22;2719;53.624;9.786;2023-08-06T07:43:29;17.90;99.90
5392;DHT22;2719;53.624;9.786;2023-08-06T07:45:58;18.00;99.90
5392;DHT22;2719;53.624;9.786;2023-08-06T07:48:25;18.10;99.90
5392;DHT22;2719;53.624;9.786;2023-08-06T07:50:52;18.00;99.90
5392;DHT22;2719;53.624;9.786;2023-08-06T07:53:20;18.10;99.90
5392;DHT22;2719;53.624;9.786;2023-08-06T07:55:52;18.10;99.90
5392;DHT22;2719;53.624;9.786;2023-08-06T07:58:19;18.00;99.90
5392;DHT22;2719;53.624;9.786;2023-08-06T08:00:46;18.00;99.90
5392;DHT22;2719;53.624;9.786;2023-08-06T08:03:14;18.00;99.90
5392;DHT22;2719;53.624;9.786;2023-08-06T08:05:41;18.10;99.90
5392;DHT22;2719;53.624;9.786;2023-08-06T08:08:08;18.10;99.90
5392;DHT22;2719;53.624;9.786;2023-08-06T08:10:36;18.20;99.90
5392;DHT22;2719;53.624;9.786;2023-08-06T08:13:03;18.20;99.90
5392;DHT22;2719;53.624;9.786;2023-08-06T08:15:31;18.30;99.90
5392;DHT22;2719;53.624;9.786;2023-08-06T08:17:58;18.30;99.90
5392;DHT22;2719;53.624;9.786;2023-08-06T08:20:25;18.40;99.90
5392;DHT22;2719;53.624;9.786;2023-08-06T08:22:57;18.40;99.90
5392;DHT22;2719;53.624;9.786;2023-08-06T08:25:24;18.50;99.90
5392;DHT22;2719;53.624;9.786;2023-08-06T08:27:52;18.60;99.90
5392;DHT22;2719;53.624;9.786;2023-08-06T08:30:19;18.60;99.90
5392;DHT22;2719;53.624;9.786;2023-08-06T08:32:46;18.50;99.90
5392;DHT22;2719;53.624;9.786;2023-08-06T08:35:12;18.40;99.90
5392;DHT22;2719;53.624;9.786;2023-08-06T08:37:41;18.50;99.90
5392;DHT22;2719;53.624;9.786;2023-08-06T08:40:09;18.40;99.90
5392;DHT22;2719;53.624;9.786;2023-08-06T08:42:36;18.60;99.90
5392;DHT22;2719;53.624;9.786;2023-08-06T08:45:07;18.50;99.90
5392;DHT22;2719;53.624;9.786;2023-08-06T08:47:36;18.60;99.90
5392;DHT22;2719;53.624;9.786;2023-08-06T08:50:06;18.60;99.90
5392;DHT22;2719;53.624;9.786;2023-08-06T08:52:33;18.70;99.90
5392;DHT22;2719;53.624;9.786;2023-08-06T08:55:02;18.70;99.90
5392;DHT22;2719;53.624;9.786;2023-08-06T08:57:29;18.80;99.90
5392;DHT22;2719;53.624;9.786;2023-08-06T08:59:56;18.80;99.90
5392;DHT22;2719;53.624;9.786;2023-08-06T09:02:26;18.80;99.90
5392;DHT22;2719;53.624;9.786;2023-08-06T09:04:56;18.80;99.90
5392;DHT22;2719;53.624;9.786;2023-08-06T09:07:25;18.80;99.90
5392;DHT22;2719;53.624;9.786;2023-08-06T09:09:53;18.80;99.90
5392;DHT22;2719;53.624;9.786;2023-08-06T09:12:22;18.70;99.90
5392;DHT22;2719;53.624;9.786;2023-08-06T09:14:48;18.70;99.90
5392;DHT22;2719;53.624;9.786;2023-08-06T09:17:15;18.80;99.90
5392;DHT22;2719;53.624;9.786;2023-08-06T09:19:46;18.80;99.90
5392;DHT22;2719;53.624;9.786;2023-08-06T09:22:15;18.80;99.90
5392;DHT22;2719;53.624;9.786;2023-08-06T09:24:43;18.80;99.90
5392;DHT22;2719;53.624;9.786;2023-08-06T09:27:13;18.80;99.90
5392;DHT22;2719;53.624;9.786;2023-08-06T09:29:41;18.80;99.90
5392;DHT22;2719;53.624;9.786;2023-08-06T09:32:08;18.80;99.90
5392;DHT22;2719;53.624;9.786;2023-08-06T09:34:35;18.70;99.90
5392;DHT22;2719;53.624;9.786;2023-08-06T09:37:07;18.60;99.90
5392;DHT22;2719;53.624;9.786;2023-08-06T09:39:34;18.70;99.90
5392;DHT22;2719;53.624;9.786;2023-08-06T09:42:02;18.70;99.90
5392;DHT22;2719;53.624;9.786;2023-08-06T09:44:31;18.70;99.90
5392;DHT22;2719;53.624;9.786;2023-08-06T09:47:00;18.70;99.90
5392;DHT22;2719;53.624;9.786;2023-08-06T09:49:28;18.70;99.90
5392;DHT22;2719;53.624;9.786;2023-08-06T09:51:55;18.80;99.90
5392;DHT22;2719;53.624;9.786;2023-08-06T09:54:25;18.80;99.90
5392;DHT22;2719;53.624;9.786;2023-08-06T09:56:52;18.80;99.90
5392;DHT22;2719;53.624;9.786;2023-08-06T09:59:19;18.80;99.90
5392;DHT22;2719;53.624;9.786;2023-08-06T10:01:47;18.80;99.90
5392;DHT22;2719;53.624;9.786;2023-08-06T10:04:14;18.90;99.90
5392;DHT22;2719;53.624;9.786;2023-08-06T10:06:42;18.90;99.90
5392;DHT22;2719;53.624;9.786;2023-08-06T10:09:09;18.90;99.90
5392;DHT22;2719;53.624;9.786;2023-08-06T10:11:38;19.00;99.90
5392;DHT22;2719;53.624;9.786;2023-08-06T10:14:10;19.00;99.90
5392;DHT22;2719;53.624;9.786;2023-08-06T10:16:38;19.10;99.90
5392;DHT22;2719;53.624;9.786;2023-08-06T10:19:09;19.00;99.90
5392;DHT22;2719;53.624;9.786;2023-08-06T10:21:38;19.00;99.90
5392;DHT22;2719;53.624;9.786;2023-08-06T10:24:07;18.90;99.90
5392;DHT22;2719;53.624;9.786;2023-08-06T10:26:36;19.00;99.90
5392;DHT22;2719;53.624;9.786;2023-08-06T10:29:36;19.00;99.90
5392;DHT22;2719;53.624;9.786;2023-08-06T10:32:03;18.90;99.90
5392;DHT22;2719;53.624;9.786;2023-08-06T10:34:55;18.90;99.90
5392;DHT22;2719;53.624;9.786;2023-08-06T10:37:23;18.90;99.90
5392;DHT22;2719;53.624;9.786;2023-08-06T10:39:50;18.90;99.90
5392;DHT22;2719;53.624;9.786;2023-08-06T10:42:22;19.00;99.90
5392;DHT22;2719;53.624;9.786;2023-08-06T10:45:11;19.00;99.90
5392;DHT22;2719;53.624;9.786;2023-08-06T10:47:38;19.00;99.90
5392;DHT22;2719;53.624;9.786;2023-08-06T10:50:07;19.10;99.90
5392;DHT22;2719;53.624;9.786;2023-08-06T10:52:34;19.10;99.90
5392;DHT22;2719;53.624;9.786;2023-08-06T10:55:01;19.00;99.90
5392;DHT22;2719;53.624;9.786;2023-08-06T10:57:29;19.10;99.90
5392;DHT22;2719;53.624;9.786;2023-08-06T10:59:57;19.10;99.90
5392;DHT22;2719;53.624;9.786;2023-08-06T11:02:26;19.20;99.90
5392;DHT22;2719;53.624;9.786;2023-08-06T11:04:54;19.20;99.90
5392;DHT22;2719;53.624;9.786;2023-08-06T11:07:21;19.20;99.90
5392;DHT22;2719;53.624;9.786;2023-08-06T11:09:50;19.20;99.90
5392;DHT22;2719;53.624;9.786;2023-08-06T11:12:19;19.30;99.90
5392;DHT22;2719;53.624;9.786;2023-08-06T11:14:52;19.20;99.90
5392;DHT22;2719;53.624;9.786;2023-08-06T11:17:19;19.20;99.90
5392;DHT22;2719;53.624;9.786;2023-08-06T11:19:46;19.30;99.90
5392;DHT22;2719;53.624;9.786;2023-08-06T11:22:14;19.30;99.90
5392;DHT22;2719;53.624;9.786;2023-08-06T11:24:41;19.40;99.90
5392;DHT22;2719;53.624;9.786;2023-08-06T11:27:12;19.50;99.90
5392;DHT22;2719;53.624;9.786;2023-08-06T11:29:41;19.50;99.90
5392;DHT22;2719;53.624;9.786;2023-08-06T11:32:10;19.50;99.90
5392;DHT22;2719;53.624;9.786;2023-08-06T11:34:38;19.50;99.90
5392;DHT22;2719;53.624;9.786;2023-08-06T11:37:06;19.50;99.90
5392;DHT22;2719;53.624;9.786;2023-08-06T11:39:34;19.40;99.90
5392;DHT22;2719;53.624;9.786;2023-08-06T11:42:03;19.50;99.90
5392;DHT22;2719;53.624;9.786;2023-08-06T11:44:30;19.50;99.90
5392;DHT22;2719;53.624;9.786;2023-08-06T11:46:58;19.50;99.90
5392;DHT22;2719;53.624;9.786;2023-08-06T11:49:45;19.50;99.90
5392;DHT22;2719;53.624;9.786;2023-08-06T11:52:16;19.50;99.90
5392;DHT22;2719;53.624;9.786;2023-08-06T11:54:45;19.50;99.90
5392;DHT22;2719;53.624;9.786;2023-08-06T11:57:12;19.40;99.90
5392;DHT22;2719;53.624;9.786;2023-08-06T11:59:39;19.40;99.90
5392;DHT22;2719;53.624;9.786;2023-08-06T12:02:09;19.40;99.90
5392;DHT22;2719;53.624;9.786;2023-08-06T12:05:01;19.40;99.90
5392;DHT22;2719;53.624;9.786;2023-08-06T12:07:30;19.40;99.90
5392;DHT22;2719;53.624;9.786;2023-08-06T12:09:58;19.40;99.90
5392;DHT22;2719;53.624;9.786;2023-08-06T12:12:25;19.40;99.90
5392;DHT22;2719;53.624;9.786;2023-08-06T12:14:52;19.30;99.90
5392;DHT22;2719;53.624;9.786;2023-08-06T12:17:19;19.40;99.90
5392;DHT22;2719;53.624;9.786;2023-08-06T12:19:46;19.30;99.90
5392;DHT22;2719;53.624;9.786;2023-08-06T12:22:15;19.30;99.90
5392;DHT22;2719;53.624;9.786;2023-08-06T12:24:42;19.30;99.90
5392;DHT22;2719;53.624;9.786;2023-08-06T12:27:08;19.30;99.90
5392;DHT22;2719;53.624;9.786;2023-08-06T12:29:35;19.30;99.90
5392;DHT22;2719;53.624;9.786;2023-08-06T12:32:04;19.30;99.90
5392;DHT22;2719;53.624;9.786;2023-08-06T12:34:31;19.20;99.90
5392;DHT22;2719;53.624;9.786;2023-08-06T12:36:57;19.20;99.90
5392;DHT22;2719;53.624;9.786;2023-08-06T12:39:25;19.20;99.90
5392;DHT22;2719;53.624;9.786;2023-08-06T12:41:54;19.10;99.90
5392;DHT22;2719;53.624;9.786;2023-08-06T12:44:22;19.10;99.90
5392;DHT22;2719;53.624;9.786;2023-08-06T12:46:49;19.10;99.90
5392;DHT22;2719;53.624;9.786;2023-08-06T12:49:16;19.10;99.90
5392;DHT22;2719;53.624;9.786;2023-08-06T12:51:43;19.20;99.90
5392;DHT22;2719;53.624;9.786;2023-08-06T12:54:10;19.20;99.90
5392;DHT22;2719;53.624;9.786;2023-08-06T12:56:38;19.20;99.90
5392;DHT22;2719;53.624;9.786;2023-08-06T12:59:06;19.30;99.90
5392;DHT22;2719;53.624;9.786;2023-08-06T13:01:33;19.30;99.90
5392;DHT22;2719;53.624;9.786;2023-08-06T13:04:00;19.40;99.90
5392;DHT22;2719;53.624;9.786;2023-08-06T13:06:27;19.50;99.90
5392;DHT22;2719;53.624;9.786;2023-08-06T13:08:53;19.60;99.90
5392;DHT22;2719;53.624;9.786;2023-08-06T13:11:20;19.70;99.90
5392;DHT22;2719;53.624;9.786;2023-08-06T13:13:48;19.70;99.90
5392;DHT22;2719;53.624;9.786;2023-08-06T13:16:15;19.80;99.90
5392;DHT22;2719;53.624;9.786;2023-08-06T13:18:42;19.80;99.90
5392;DHT22;2719;53.624;9.786;2023-08-06T13:21:09;19.90;99.90
5392;DHT22;2719;53.624;9.786;2023-08-06T13:23:35;20.00;99.90
5392;DHT22;2719;53.624;9.786;2023-08-06T13:26:02;20.20;99.90
5392;DHT22;2719;53.624;9.786;2023-08-06T13:28:29;20.10;99.90
5392;DHT22;2719;53.624;9.786;2023-08-06T13:30:57;20.10;99.90
5392;DHT22;2719;53.624;9.786;2023-08-06T13:33:24;20.10;99.90
5392;DHT22;2719;53.624;9.786;2023-08-06T13:35:52;20.00;99.90
5392;DHT22;2719;53.624;9.786;2023-08-06T13:38:19;20.00;99.90
5392;DHT22;2719;53.624;9.786;2023-08-06T13:40:45;20.00;99.90
5392;DHT22;2719;53.624;9.786;2023-08-06T13:43:12;20.00;99.90
5392;DHT22;2719;53.624;9.786;2023-08-06T13:45:41;19.80;99.90
5392;DHT22;2719;53.624;9.786;2023-08-06T13:48:09;19.70;99.90
5392;DHT22;2719;53.624;9.786;2023-08-06T13:50:36;19.70;99.90
5392;DHT22;2719;53.624;9.786;2023-08-06T13:53:03;19.50;99.90
5392;DHT22;2719;53.624;9.786;2023-08-06T13:55:29;19.40;99.90
5392;DHT22;2719;53.624;9.786;2023-08-06T13:57:56;19.40;99.90
5392;DHT22;2719;53.624;9.786;2023-08-06T14:00:23;19.30;99.90
5392;DHT22;2719;53.624;9.786;2023-08-06T14:02:50;19.30;99.90
5392;DHT22;2719;53.624;9.786;2023-08-06T14:05:18;19.30;99.90
5392;DHT22;2719;53.624;9.786;2023-08-06T14:07:45;19.20;99.90
5392;DHT22;2719;53.624;9.786;2023-08-06T14:10:12;19.00;99.90
5392;DHT22;2719;53.624;9.786;2023-08-06T14:12:39;19.00;99.90
5392;DHT22;2719;53.624;9.786;2023-08-06T14:15:06;18.90;99.90
5392;DHT22;2719;53.624;9.786;2023-08-06T14:17:33;18.80;99.90
5392;DHT22;2719;53.624;9.786;2023-08-06T14:20:00;18.70;99.90
5392;DHT22;2719;53.624;9.786;2023-08-06T14:22:30;18.70;99.90
5392;DHT22;2719;53.624;9.786;2023-08-06T14:24:57;18.70;99.90
5392;DHT22;2719;53.624;9.786;2023-08-06T14:27:24;18.80;99.90
5392;DHT22;2719;53.624;9.786;2023-08-06T14:29:51;18.70;99.90
5392;DHT22;2719;53.624;9.786;2023-08-06T14:32:18;18.60;99.90
5392;DHT22;2719;53.624;9.786;2023-08-06T14:34:45;18.60;99.90
5392;DHT22;2719;53.624;9.786;2023-08-06T14:37:12;18.50;99.90
5392;DHT22;2719;53.624;9.786;2023-08-06T14:39:40;18.50;99.90
5392;DHT22;2719;53.624;9.786;2023-08-06T14:42:07;18.50;99.90
5392;DHT22;2719;53.624;9.786;2023-08-06T14:44:34;18.50;99.90
5392;DHT22;2719;53.624;9.786;2023-08-06T14:47:01;18.60;99.90
5392;DHT22;2719;53.624;9.786;2023-08-06T14:49:28;18.60;99.90
5392;DHT22;2719;53.624;9.786;2023-08-06T14:51:55;18.70;99.90
5392;DHT22;2719;53.624;9.786;2023-08-06T14:54:25;18.60;99.90
5392;DHT22;2719;53.624;9.786;2023-08-06T14:56:54;18.50;99.90
5392;DHT22;2719;53.624;9.786;2023-08-06T14:59:20;18.50;99.90
5392;DHT22;2719;53.624;9.786;2023-08-06T15:01:47;18.50;99.90
5392;DHT22;2719;53.624;9.786;2023-08-06T15:04:14;18.50;99.90
5392;DHT22;2719;53.624;9.786;2023-08-06T15:06:41;18.50;99.90
5392;DHT22;2719;53.624;9.786;2023-08-06T15:09:08;18.60;99.90
5392;DHT22;2719;53.624;9.786;2023-08-06T15:11:35;18.50;99.90
5392;DHT22;2719;53.624;9.786;2023-08-06T15:14:03;18.60;99.90
5392;DHT22;2719;53.624;9.786;2023-08-06T15:16:33;18.60;99.90
5392;DHT22;2719;53.624;9.786;2023-08-06T15:19:00;18.60;99.90
5392;DHT22;2719;53.624;9.786;2023-08-06T15:21:27;18.60;99.90
5392;DHT22;2719;53.624;9.786;2023-08-06T15:23:54;18.70;99.90
5392;DHT22;2719;53.624;9.786;2023-08-06T15:26:20;18.70;99.90
5392;DHT22;2719;53.624;9.786;2023-08-06T15:28:47;18.70;99.90
5392;DHT22;2719;53.624;9.786;2023-08-06T15:31:19;18.80;99.90
5392;DHT22;2719;53.624;9.786;2023-08-06T15:33:46;18.70;99.90
5392;DHT22;2719;53.624;9.786;2023-08-06T15:36:13;18.70;99.90
5392;DHT22;2719;53.624;9.786;2023-08-06T15:38:40;18.70;99.90
5392;DHT22;2719;53.624;9.786;2023-08-06T15:41:06;18.80;99.90
5392;DHT22;2719;53.624;9.786;2023-08-06T15:43:33;18.90;99.90
5392;DHT22;2719;53.624;9.786;2023-08-06T15:46:00;19.00;99.90
5392;DHT22;2719;53.624;9.786;2023-08-06T15:48:28;19.00;99.90
5392;DHT22;2719;53.624;9.786;2023-08-06T15:50:55;18.90;99.90
5392;DHT22;2719;53.624;9.786;2023-08-06T15:53:23;18.90;99.90
5392;DHT22;2719;53.624;9.786;2023-08-06T15:55:49;18.80;99.90
5392;DHT22;2719;53.624;9.786;2023-08-06T15:58:16;18.90;99.90
5392;DHT22;2719;53.624;9.786;2023-08-06T16:00:42;18.90;99.90
5392;DHT22;2719;53.624;9.786;2023-08-06T16:03:10;18.90;99.90
5392;DHT22;2719;53.624;9.786;2023-08-06T16:05:38;18.90;99.90